Terminal Aerodrome Forecast
Issued by NWS Lake Charles, LA

Home | Current Version | Previous Version | Text Only | Print | Product List | Glossary On
Versions: 1 2 3 4 5 6 7 8 9 10 11 12 13 14 15 16 17 18 19 20
000
FTUS44 KLCH 051100
TAFBPT
TAF
KBPT 051129Z 0512/0612 36023G30KT 6SM -RA BR OVC015
      TEMPO 0512/0516 3SM RA BR SCT015 OVC025
     FM051800 01021G28KT P6SM OVC025
     FM052200 01017G24KT P6SM SCT250
     FM060500 01014G20KT P6SM SKC=

USA.gov is the U.S. government's official web portal to all federal, state and local government web resources and services.